Time;durP1;ratioP1;P1;durP2;ratioP2;P2;SDS_P1;SDS_P2;PMS_P1;PMS_P2;Temp;Humidity;BMP_temperature;BMP_pressure;BME280_temperature;BME280_humidity;BME280_pressure;Samples;Min_cycle;Max_cycle;Signal;HPM_P1;HPM_P2
2023/06/06 00:00:15;;;;;;;0.75;0.75;;;;;;;19.18;93.34;100515.41;5054550;28;20280;-73
2023/06/06 00:02:44;;;;;;;0.70;0.70;;;;;;;18.52;95.29;100432.13;5073092;28;20643;-74
2023/06/06 00:05:13;;;;;;;0.70;0.70;;;;;;;18.94;97.96;100520.94;5073489;28;20227;-73
2023/06/06 00:07:42;;;;;;;0.80;0.80;;;;;;;18.88;98.61;100493.88;5073439;28;20631;-73
2023/06/06 00:10:13;;;;;;;0.65;0.65;;;;;;;18.93;99.66;100513.97;5073638;28;20260;-73
2023/06/06 00:12:43;;;;;;;0.70;0.70;;;;;;;18.69;100.00;100509.84;5073650;28;20195;-74
2023/06/06 00:15:12;;;;;;;1.17;1.17;;;;;;;18.72;100.00;100508.97;5034523;28;20228;-73
2023/06/06 00:17:39;;;;;;;0.70;0.70;;;;;;;18.58;100.00;100511.75;5071362;28;20210;-72
2023/06/06 00:20:09;;;;;;;0.80;0.80;;;;;;;18.53;100.00;100513.53;5072976;28;20210;-73
2023/06/06 00:22:36;;;;;;;0.60;0.60;;;;;;;18.46;100.00;100509.22;5040830;28;20628;-73
2023/06/06 00:25:04;;;;;;;0.70;0.70;;;;;;;18.39;100.00;100499.66;5072769;28;20219;-73
2023/06/06 00:27:34;;;;;;;0.80;0.80;;;;;;;18.46;100.00;100506.59;5057345;28;20219;-73
2023/06/06 00:30:01;;;;;;;0.70;0.70;;;;;;;18.28;100.00;100505.00;5072840;28;20602;-73
2023/06/06 00:32:28;;;;;;;0.70;0.70;;;;;;;18.33;100.00;100505.81;5072945;28;20900;-73
2023/06/06 00:34:55;;;;;;;0.70;0.70;;;;;;;18.38;100.00;100502.28;5073016;28;20194;-72
2023/06/06 00:37:23;;;;;;;0.70;0.70;;;;;;;18.28;100.00;100498.88;5073333;28;20264;-73
2023/06/06 00:39:49;;;;;;;0.60;0.60;;;;;;;18.06;100.00;100500.84;5073196;28;20592;-73
2023/06/06 00:42:16;;;;;;;0.60;0.60;;;;;;;18.03;100.00;100500.00;5072409;28;20194;-73
2023/06/06 00:44:44;;;;;;;0.70;0.70;;;;;;;18.06;100.00;100499.97;5035849;28;20218;-72
2023/06/06 00:47:13;;;;;;;0.70;0.70;;;;;;;17.95;100.00;100497.44;5072042;28;20589;-73
2023/06/06 00:49:42;;;;;;;0.70;0.70;;;;;;;17.94;100.00;100503.59;5073022;28;20703;-73
2023/06/06 00:52:09;;;;;;;0.70;0.70;;;;;;;17.86;100.00;100489.66;5072441;28;20218;-74
2023/06/06 00:54:36;;;;;;;0.80;0.80;;;;;;;17.74;100.00;100481.88;5072603;28;20210;-72
2023/06/06 00:57:03;;;;;;;0.63;0.63;;;;;;;17.76;100.00;100491.44;5018842;28;20214;-73
2023/06/06 00:59:31;;;;;;;0.70;0.70;;;;;;;17.73;100.00;100501.09;5062109;28;20276;-73
2023/06/06 01:02:03;;;;;;;0.70;0.70;;;;;;;17.72;100.00;100502.00;5072775;28;20209;-74
2023/06/06 01:04:30;;;;;;;0.63;0.63;;;;;;;17.47;100.00;100480.28;5072226;28;20215;-72
2023/06/06 01:06:58;;;;;;;1.02;1.02;;;;;;;17.34;100.00;100484.72;5072368;28;20236;-73
2023/06/06 01:09:25;;;;;;;0.70;0.70;;;;;;;17.30;100.00;100492.63;5072276;28;20231;-72
2023/06/06 01:12:01;;;;;;;0.70;0.70;;;;;;;17.41;100.00;100492.56;5036902;28;20208;-73
2023/06/06 01:14:38;;;;;;;0.70;0.70;;;;;;;17.26;100.00;100485.66;5071958;28;20672;-74
2023/06/06 01:17:08;;;;;;;0.70;0.70;;;;;;;17.26;100.00;100489.16;5072082;28;20201;-72
2023/06/06 01:19:37;;;;;;;0.80;0.80;;;;;;;17.25;100.00;100491.78;5072515;28;20190;-73
2023/06/06 01:22:06;;;;;;;0.70;0.70;;;;;;;17.24;100.00;100496.16;5071827;28;20654;-72
2023/06/06 01:24:36;;;;;;;0.70;0.70;;;;;;;17.10;100.00;100474.38;5062408;28;20215;-74
2023/06/06 01:27:04;;;;;;;0.70;0.70;;;;;;;17.03;100.00;100479.66;5071781;28;20691;-72
2023/06/06 01:29:31;;;;;;;0.70;0.70;;;;;;;16.98;100.00;100487.53;5071683;28;20299;-73
2023/06/06 01:32:06;;;;;;;0.70;0.70;;;;;;;17.10;100.00;100497.09;5071939;28;20191;-73
2023/06/06 01:34:39;;;;;;;0.73;0.73;;;;;;;17.06;100.00;100488.38;5071531;28;20228;-73
2023/06/06 01:37:14;;;;;;;0.70;0.70;;;;;;;16.97;100.00;100493.66;5036522;28;20207;-73
2023/06/06 01:39:47;;;;;;;0.70;0.70;;;;;;;16.74;100.00;100495.50;5036233;28;20198;-73
2023/06/06 01:42:15;;;;;;;0.70;0.70;;;;;;;16.57;100.00;100484.22;5071549;28;20203;-73
2023/06/06 01:44:43;;;;;;;0.80;0.80;;;;;;;16.34;100.00;100448.47;5071351;28;20648;-72
2023/06/06 01:47:11;;;;;;;0.70;0.70;;;;;;;16.50;100.00;100477.22;5055880;28;20202;-73
2023/06/06 01:49:38;;;;;;;0.80;0.80;;;;;;;16.35;100.00;100473.75;5071971;28;20292;-72
2023/06/06 01:52:05;;;;;;;0.80;0.80;;;;;;;16.41;100.00;100475.47;5071860;28;20195;-73
2023/06/06 01:54:34;;;;;;;0.70;0.70;;;;;;;16.41;100.00;100483.31;5071399;28;20201;-74
2023/06/06 01:57:01;;;;;;;0.80;0.80;;;;;;;16.15;100.00;100462.47;5071298;28;20202;-73
2023/06/06 01:59:28;;;;;;;0.80;0.80;;;;;;;16.18;100.00;100478.16;5030162;28;20208;-73
2023/06/06 02:01:56;;;;;;;0.70;0.70;;;;;;;15.91;100.00;100448.56;5071111;28;20210;-72
2023/06/06 02:04:23;;;;;;;0.60;0.60;;;;;;;16.12;100.00;100491.25;5071140;28;20226;-72
2023/06/06 02:06:51;;;;;;;0.60;0.60;;;;;;;16.19;100.00;100492.13;5071540;28;20198;-72
2023/06/06 02:09:18;;;;;;;0.70;0.70;;;;;;;16.18;100.00;100493.84;5036737;28;20198;-73
2023/06/06 02:11:46;;;;;;;0.60;0.60;;;;;;;16.13;100.00;100477.28;5052472;28;20206;-73
2023/06/06 02:14:15;;;;;;;0.70;0.70;;;;;;;16.13;100.00;100502.56;5071083;28;20327;-75
2023/06/06 02:16:45;;;;;;;0.88;0.88;;;;;;;16.08;100.00;100502.59;5071085;28;20673;-73
2023/06/06 02:19:12;;;;;;;0.80;0.80;;;;;;;16.14;100.00;100520.88;5071230;28;20195;-72
2023/06/06 02:21:39;;;;;;;0.70;0.70;;;;;;;16.09;100.00;100512.16;5070635;28;20294;-73
2023/06/06 02:24:06;;;;;;;0.73;0.73;;;;;;;16.11;100.00;100517.41;5070572;28;20619;-73
2023/06/06 02:26:35;;;;;;;0.80;0.80;;;;;;;15.99;100.00;100515.66;5070923;28;20215;-73
2023/06/06 02:29:03;;;;;;;0.70;0.70;;;;;;;15.98;100.00;100492.97;5071478;28;20206;-73
2023/06/06 02:31:30;;;;;;;0.70;0.70;;;;;;;15.97;100.00;100517.41;5071187;28;20221;-73
2023/06/06 02:33:57;;;;;;;0.80;0.80;;;;;;;15.90;100.00;100518.28;5066017;28;20237;-73
2023/06/06 02:36:23;;;;;;;0.70;0.70;;;;;;;15.89;100.00;100527.00;5070643;28;20614;-73
2023/06/06 02:38:50;;;;;;;0.68;0.68;;;;;;;15.97;100.00;100527.88;5032983;28;20670;-73
2023/06/06 02:41:17;;;;;;;0.60;0.60;;;;;;;15.94;100.00;100512.19;5068064;28;20271;-73
2023/06/06 02:43:44;;;;;;;0.70;0.70;;;;;;;15.98;100.00;100526.97;5070498;28;20216;-73
2023/06/06 02:46:12;;;;;;;0.70;0.70;;;;;;;16.08;100.00;100528.75;5051770;28;20310;-73
2023/06/06 02:48:39;;;;;;;0.70;0.70;;;;;;;15.95;100.00;100532.22;5070424;28;20198;-73
2023/06/06 02:51:06;;;;;;;0.80;0.80;;;;;;;15.99;100.00;100526.13;5051516;28;20210;-73
2023/06/06 02:53:34;;;;;;;0.80;0.80;;;;;;;16.00;100.00;100525.25;5070476;28;20577;-73
2023/06/06 02:56:00;;;;;;;0.80;0.80;;;;;;;16.03;100.00;100533.09;5070529;28;20295;-73
2023/06/06 02:58:28;;;;;;;0.98;0.98;;;;;;;16.01;100.00;100513.06;5070205;28;20191;-73
2023/06/06 03:00:56;;;;;;;0.70;0.70;;;;;;;16.12;100.00;100521.78;5070863;28;20256;-73
2023/06/06 03:03:25;;;;;;;0.70;0.70;;;;;;;16.15;100.00;100522.66;5070093;28;20195;-73
2023/06/06 03:05:52;;;;;;;0.70;0.70;;;;;;;16.04;100.00;100527.00;5070847;28;20225;-73
2023/06/06 03:08:19;;;;;;;0.70;0.70;;;;;;;16.00;100.00;100527.88;5070663;28;20225;-73
2023/06/06 03:10:46;;;;;;;0.70;0.70;;;;;;;16.15;100.00;100522.66;5034420;28;20203;-74
2023/06/06 03:13:13;;;;;;;0.75;0.75;;;;;;;16.49;100.00;100531.31;5037182;28;20384;-73
2023/06/06 03:15:41;;;;;;;0.70;0.70;;;;;;;16.93;100.00;100526.00;5073970;28;20203;-73
2023/06/06 03:18:09;;;;;;;0.70;0.70;;;;;;;17.36;100.00;100534.53;5074507;28;20250;-73
2023/06/06 03:20:40;;;;;;;1.55;1.45;;;;;;;17.55;100.00;100535.31;5073872;28;20235;-73
2023/06/06 03:23:07;;;;;;;0.70;0.70;;;;;;;17.34;100.00;100517.94;5074472;28;20274;-73
2023/06/06 03:25:34;;;;;;;0.60;0.60;;;;;;;17.78;100.00;100533.41;5074199;28;20218;-73
2023/06/06 03:28:01;;;;;;;0.80;0.80;;;;;;;18.25;100.00;100533.94;5074063;28;20277;-73
2023/06/06 03:30:28;;;;;;;0.70;0.70;;;;;;;18.23;100.00;100519.94;5038596;28;20288;-73
2023/06/06 03:32:55;;;;;;;0.75;0.75;;;;;;;18.44;98.76;100545.13;5069588;28;20206;-73
2023/06/06 03:35:22;;;;;;;0.80;0.80;;;;;;;18.48;97.89;100540.72;5074136;28;20202;-73
2023/06/06 03:37:55;;;;;;;0.70;0.70;;;;;;;18.43;98.30;100539.88;5073935;28;20640;-73
2023/06/06 03:40:22;;;;;;;0.73;0.73;;;;;;;18.59;96.84;100530.97;5073943;28;20280;-73
2023/06/06 03:42:49;;;;;;;0.70;0.70;;;;;;;18.65;96.72;100534.44;5073642;28;20211;-73
2023/06/06 03:45:16;;;;;;;0.70;0.70;;;;;;;19.17;92.97;100537.31;5073862;28;20226;-73
2023/06/06 03:47:42;;;;;;;0.60;0.60;;;;;;;19.55;90.23;100541.25;5073251;28;20198;-73
2023/06/06 03:50:10;;;;;;;0.80;0.80;;;;;;;19.31;91.47;100534.50;5073872;28;20202;-73
2023/06/06 03:52:37;;;;;;;0.70;0.70;;;;;;;19.30;91.48;100536.25;5072505;28;20708;-73
2023/06/06 03:55:06;;;;;;;0.70;0.70;;;;;;;19.80;91.63;100542.59;5073722;28;20655;-82
2023/06/06 03:57:32;;;;;;;0.65;0.65;;;;;;;20.38;85.88;100557.47;5074101;28;20203;-74
2023/06/06 04:00:00;;;;;;;0.70;0.70;;;;;;;20.63;81.44;100540.34;5073757;28;20194;-77
2023/06/06 04:02:27;;;;;;;0.70;0.70;;;;;;;20.58;82.41;100543.06;5073651;28;20191;-77
2023/06/06 04:04:54;;;;;;;0.70;0.70;;;;;;;20.53;81.06;100523.84;5066449;28;20709;-76
2023/06/06 04:07:21;;;;;;;1.13;1.13;;;;;;;20.56;81.62;100554.53;5069599;28;20207;-76
2023/06/06 04:09:48;;;;;;;0.70;0.70;;;;;;;20.82;81.41;100554.91;5073618;28;20817;-75
2023/06/06 04:12:16;;;;;;;0.60;0.60;;;;;;;21.07;79.33;100552.66;5073996;28;20692;-75
2023/06/06 04:14:43;;;;;;;0.60;0.60;;;;;;;21.59;75.72;100563.00;5073567;28;20191;-75
2023/06/06 04:17:10;;;;;;;0.60;0.60;;;;;;;21.76;74.49;100559.06;5074314;28;20218;-74
2023/06/06 04:19:37;;;;;;;0.65;0.65;;;;;;;22.10;79.47;100567.13;5073996;28;20298;-75
2023/06/06 04:22:05;;;;;;;0.60;0.60;;;;;;;22.31;72.91;100567.47;5058573;28;20706;-76
2023/06/06 04:24:31;;;;;;;0.70;0.70;;;;;;;22.24;70.17;100556.19;5070491;28;20235;-74
2023/06/06 04:27:03;;;;;;;0.60;0.60;;;;;;;23.07;66.36;100574.28;5069256;28;20218;-74
2023/06/06 04:29:32;;;;;;;1.10;1.00;;;;;;;23.00;64.27;100573.59;5070721;28;20230;-78
2023/06/06 04:31:59;;;;;;;0.77;0.77;;;;;;;23.55;61.50;100569.34;5073913;28;20210;-76
2023/06/06 04:34:30;;;;;;;0.68;0.68;;;;;;;23.88;59.37;100583.34;5070362;28;20207;-76
2023/06/06 04:37:03;;;;;;;0.70;0.70;;;;;;;24.40;59.03;100586.06;5073723;28;20203;-75
2023/06/06 04:39:32;;;;;;;0.60;0.60;;;;;;;25.06;56.48;100577.56;5060486;28;20611;-75
2023/06/06 04:41:59;;;;;;;0.65;0.65;;;;;;;24.47;55.89;100560.22;5072907;28;20287;-76
2023/06/06 04:44:26;;;;;;;0.70;0.70;;;;;;;23.93;57.75;100581.44;5072742;28;20206;-76
2023/06/06 04:47:00;;;;;;;0.70;0.70;;;;;;;23.75;59.02;100566.97;5054206;28;20235;-75
2023/06/06 04:49:27;;;;;;;0.68;0.68;;;;;;;23.82;58.56;100576.47;5072945;28;20199;-75
2023/06/06 04:51:59;;;;;;;0.70;0.70;;;;;;;23.89;58.45;100575.34;5053629;28;20206;-76
2023/06/06 04:54:26;;;;;;;0.60;0.60;;;;;;;23.40;59.92;100535.38;5066836;28;20200;-75
2023/06/06 04:56:53;;;;;;;0.57;0.57;;;;;;;22.79;63.07;100555.69;5070332;28;20195;-75
2023/06/06 04:59:22;;;;;;;0.60;0.60;;;;;;;23.14;62.87;100578.50;5054608;28;20211;-77
2023/06/06 05:01:51;;;;;;;0.60;0.60;;;;;;;22.73;64.79;100569.03;5072717;28;20210;-74
2023/06/06 05:04:19;;;;;;;0.63;0.63;;;;;;;22.00;69.04;100549.75;5072725;28;20743;-75
2023/06/06 05:06:46;;;;;;;0.70;0.70;;;;;;;22.28;69.17;100562.28;5072005;28;20219;-75
2023/06/06 05:09:13;;;;;;;0.70;0.70;;;;;;;22.41;68.47;100568.97;5072805;28;20202;-74
2023/06/06 05:11:45;;;;;;;0.70;0.70;;;;;;;23.57;64.34;100572.84;5072436;28;20272;-76
2023/06/06 05:14:12;;;;;;;0.60;0.60;;;;;;;23.53;63.09;100568.53;5075046;28;20210;-74
2023/06/06 05:16:39;;;;;;;0.70;0.70;;;;;;;22.39;67.16;100561.09;5072434;28;20622;-71
2023/06/06 05:19:06;;;;;;;0.70;0.70;;;;;;;22.45;68.30;100557.44;5072452;28;20203;-70
2023/06/06 05:21:34;;;;;;;0.85;0.85;;;;;;;22.34;67.65;100575.31;5072022;28;20218;-73
2023/06/06 05:24:01;;;;;;;0.80;0.80;;;;;;;21.62;70.55;100560.28;5072568;28;20268;-74
2023/06/06 05:26:29;;;;;;;0.70;0.70;;;;;;;21.21;76.31;100575.25;5071951;28;20292;-72
2023/06/06 05:28:55;;;;;;;0.60;0.60;;;;;;;20.95;80.73;100572.22;5067007;28;20207;-72
2023/06/06 05:31:22;;;;;;;1.23;1.23;;;;;;;21.00;80.86;100575.66;5063964;28;20210;-72
2023/06/06 05:33:49;;;;;;;0.65;0.65;;;;;;;21.16;79.13;100587.66;5072155;28;20207;-72
2023/06/06 05:36:16;;;;;;;0.80;0.80;;;;;;;21.83;77.13;100578.28;5071126;28;20739;-74
2023/06/06 05:38:44;;;;;;;0.60;0.60;;;;;;;22.67;69.55;100587.72;5053018;28;20754;-73
2023/06/06 05:41:11;;;;;;;0.73;0.73;;;;;;;22.14;71.39;100587.28;5071968;28;20202;-72
2023/06/06 05:43:37;;;;;;;0.60;0.60;;;;;;;21.78;74.40;100566.97;5072281;28;20214;-79
2023/06/06 05:46:04;;;;;;;1.02;1.02;;;;;;;22.54;72.12;100589.78;5072737;28;20296;-76
2023/06/06 05:48:32;;;;;;;0.60;0.60;;;;;;;22.23;72.63;100586.16;5072083;28;20207;-72
2023/06/06 05:50:59;;;;;;;0.60;0.60;;;;;;;22.02;73.04;100545.28;5066547;28;20246;-74
2023/06/06 05:53:26;;;;;;;0.80;0.80;;;;;;;21.99;73.51;100581.47;5062565;28;20199;-74
2023/06/06 05:55:54;;;;;;;0.70;0.70;;;;;;;21.96;76.50;100590.34;5071584;28;20597;-74
2023/06/06 05:58:21;;;;;;;0.70;0.70;;;;;;;22.32;71.43;100590.38;5071715;28;20228;-75
2023/06/06 06:00:47;;;;;;;0.60;0.60;;;;;;;22.14;71.60;100594.31;5052784;28;20202;-75
2023/06/06 06:03:15;;;;;;;0.90;0.90;;;;;;;22.08;71.98;100571.56;5036104;28;20199;-75
2023/06/06 06:05:42;;;;;;;0.60;0.60;;;;;;;22.12;72.03;100598.75;5071144;28;20686;-75
2023/06/06 06:08:09;;;;;;;0.60;0.60;;;;;;;22.82;67.83;100576.75;5071524;28;20211;-75
2023/06/06 06:10:37;;;;;;;0.70;0.70;;;;;;;23.47;66.04;100604.00;5071387;28;20203;-76
2023/06/06 06:13:06;;;;;;;0.60;0.60;;;;;;;23.47;64.81;100600.50;5071295;28;20190;-75
2023/06/06 06:15:35;;;;;;;0.65;0.65;;;;;;;23.00;66.45;100599.16;5071407;28;20238;-75
2023/06/06 06:18:04;;;;;;;3.00;1.33;;;;;;;22.64;69.57;100590.41;5071430;28;20246;-75
2023/06/06 06:20:31;;;;;;;0.70;0.70;;;;;;;22.06;73.41;100591.00;5053229;28;20238;-75
2023/06/06 06:22:57;;;;;;;0.70;0.70;;;;;;;22.09;73.79;100578.56;5071580;28;20205;-75
2023/06/06 06:25:24;;;;;;;0.70;0.70;;;;;;;22.18;74.69;100559.00;5071232;28;20696;-76
2023/06/06 06:27:51;;;;;;;0.70;0.70;;;;;;;21.85;76.12;100579.13;5071350;28;20704;-75
2023/06/06 06:30:19;;;;;;;1.25;1.25;;;;;;;21.80;74.98;100583.63;5071003;28;20619;-75
2023/06/06 06:32:46;;;;;;;0.65;0.65;;;;;;;22.02;74.05;100582.28;5071623;28;20202;-75
2023/06/06 06:35:13;;;;;;;0.70;0.70;;;;;;;22.34;74.52;100567.41;5071590;28;20211;-76
2023/06/06 06:37:40;;;;;;;0.70;0.70;;;;;;;21.77;76.40;100591.63;5071356;28;20194;-74
2023/06/06 06:40:09;;;;;;;0.60;0.60;;;;;;;21.76;79.88;100589.88;5071390;28;20195;-75
2023/06/06 06:42:39;;;;;;;0.70;0.70;;;;;;;21.82;80.67;100592.41;5071254;28;20201;-76
2023/06/06 06:45:08;;;;;;;0.80;0.80;;;;;;;22.02;80.91;100587.56;5071184;28;20199;-75
2023/06/06 06:47:36;;;;;;;0.70;0.70;;;;;;;21.90;81.09;100598.44;5074187;28;20269;-75
2023/06/06 06:50:04;;;;;;;0.70;0.70;;;;;;;21.91;81.13;100584.28;5075468;28;20724;-75
2023/06/06 06:52:33;;;;;;;0.73;0.73;;;;;;;21.80;81.29;100575.72;5075397;28;20271;-76
2023/06/06 06:55:01;;;;;;;0.70;0.70;;;;;;;22.39;79.55;100595.47;5075417;28;20198;-75
2023/06/06 06:57:29;;;;;;;0.70;0.70;;;;;;;21.91;80.56;100514.75;5075119;28;20228;-74
2023/06/06 06:59:56;;;;;;;0.65;0.65;;;;;;;22.80;80.04;100598.81;5075028;28;20677;-75
2023/06/06 07:02:26;;;;;;;0.65;0.65;;;;;;;22.76;77.01;100517.88;5075263;28;20593;-75
2023/06/06 07:04:54;;;;;;;0.60;0.60;;;;;;;22.92;75.49;100593.22;5074946;28;20206;-73
2023/06/06 07:07:21;;;;;;;0.80;0.80;;;;;;;22.62;77.63;100587.78;5074865;28;20230;-71
2023/06/06 07:09:48;;;;;;;0.70;0.70;;;;;;;23.03;77.56;100586.72;5074991;28;20277;-73
2023/06/06 07:12:15;;;;;;;0.85;0.85;;;;;;;23.34;76.94;100585.84;5074902;28;20194;-72
2023/06/06 07:14:43;;;;;;;0.77;0.77;;;;;;;23.06;72.05;100569.91;5074986;28;20202;-72
2023/06/06 07:17:09;;;;;;;0.70;0.70;;;;;;;23.19;72.17;100585.38;5074813;28;20203;-72
2023/06/06 07:19:37;;;;;;;0.60;0.60;;;;;;;23.32;71.56;100579.72;5074511;28;20202;-72
2023/06/06 07:22:05;;;;;;;0.70;0.70;;;;;;;23.41;69.88;100583.00;5074729;28;20226;-71
2023/06/06 07:24:32;;;;;;;0.68;0.68;;;;;;;23.32;69.35;100582.38;5074433;28;20198;-72
2023/06/06 07:27:00;;;;;;;0.80;0.80;;;;;;;23.20;67.41;100571.25;5074543;28;20222;-71
2023/06/06 07:29:28;;;;;;;0.70;0.70;;;;;;;23.23;66.91;100581.72;5074638;28;20266;-71
2023/06/06 07:31:55;;;;;;;1.00;1.00;;;;;;;23.23;65.36;100589.66;5074016;28;20233;-72
2023/06/06 07:34:22;;;;;;;0.70;0.70;;;;;;;23.31;61.75;100589.44;5074555;28;20241;-71
2023/06/06 07:36:49;;;;;;;0.68;0.68;;;;;;;23.53;60.70;100565.91;5074491;28;20206;-71
2023/06/06 07:39:17;;;;;;;0.70;0.70;;;;;;;23.51;60.70;100586.22;5074346;28;20650;-71
2023/06/06 07:41:45;;;;;;;0.85;0.85;;;;;;;23.62;60.17;100571.78;5074220;28;20202;-72
2023/06/06 07:44:12;;;;;;;0.70;0.70;;;;;;;23.51;57.05;100583.59;5073838;28;20260;-72
2023/06/06 07:46:38;;;;;;;0.80;0.80;;;;;;;23.64;54.83;100579.69;5074147;28;20280;-72
2023/06/06 07:49:05;;;;;;;0.90;0.90;;;;;;;23.76;56.86;100573.97;5038883;28;20195;-71
2023/06/06 07:51:32;;;;;;;0.70;0.70;;;;;;;23.77;53.82;100590.75;5073987;28;20205;-71
2023/06/06 07:53:59;;;;;;;0.68;0.68;;;;;;;23.58;52.30;100586.00;5074322;28;20248;-71
2023/06/06 07:56:30;;;;;;;0.60;0.60;;;;;;;24.10;51.19;100590.56;5074024;28;20203;-73
2023/06/06 07:58:57;;;;;;;0.80;0.80;;;;;;;23.89;48.92;100585.94;5073692;28;20201;-72
2023/06/06 08:01:25;;;;;;;0.70;0.70;;;;;;;23.89;49.01;100588.59;5039335;28;20223;-72
2023/06/06 08:03:54;;;;;;;0.70;0.70;;;;;;;24.22;49.35;100593.78;5074002;28;20205;-72
2023/06/06 08:06:23;;;;;;;0.70;0.70;;;;;;;24.17;48.98;100586.84;5073744;28;20229;-72
2023/06/06 08:08:51;;;;;;;0.60;0.60;;;;;;;24.17;47.09;100584.19;5055585;28;20199;-70
2023/06/06 08:11:18;;;;;;;0.60;0.60;;;;;;;23.90;46.53;100560.34;5073747;28;20203;-71
2023/06/06 08:13:46;;;;;;;0.70;0.70;;;;;;;24.00;45.95;100570.59;5073932;28;20207;-72
2023/06/06 08:16:13;;;;;;;0.60;0.60;;;;;;;24.29;45.86;100574.97;5073710;28;20198;-72
2023/06/06 08:18:40;;;;;;;0.80;0.80;;;;;;;24.52;47.43;100566.22;5073548;28;20195;-72
2023/06/06 08:21:06;;;;;;;1.42;1.42;;;;;;;24.61;45.14;100556.16;5073831;28;20198;-71
2023/06/06 08:23:33;;;;;;;0.70;0.70;;;;;;;24.44;43.85;100563.81;5073778;28;20331;-71
2023/06/06 08:26:00;;;;;;;0.70;0.70;;;;;;;24.67;43.00;100568.34;5073480;28;20677;-71
2023/06/06 08:28:28;;;;;;;0.80;0.80;;;;;;;24.84;43.48;100570.44;5073365;28;20194;-71
2023/06/06 08:30:56;;;;;;;0.70;0.70;;;;;;;24.85;42.07;100557.13;5073243;28;20777;-72
2023/06/06 08:33:23;;;;;;;0.70;0.70;;;;;;;24.99;42.96;100568.09;5073232;28;20195;-71
2023/06/06 08:35:50;;;;;;;0.60;0.60;;;;;;;25.45;41.07;100571.69;5054858;28;20199;-71
2023/06/06 08:38:16;;;;;;;0.65;0.65;;;;;;;25.71;40.32;100576.91;5073492;28;20214;-71
2023/06/06 08:40:44;;;;;;;0.70;0.70;;;;;;;25.41;38.23;100538.22;5073290;28;20194;-71
2023/06/06 08:43:12;;;;;;;0.80;0.80;;;;;;;25.18;36.88;100542.59;5072739;28;20207;-71
2023/06/06 08:45:48;;;;;;;0.70;0.70;;;;;;;25.72;37.58;100565.31;5073090;28;20202;-71
2023/06/06 08:48:18;;;;;;;0.80;0.80;;;;;;;25.75;35.54;100564.38;5037867;28;20198;-71
2023/06/06 08:50:46;;;;;;;0.70;0.70;;;;;;;25.90;36.70;100564.59;5038359;28;20195;-74
2023/06/06 08:53:14;;;;;;;1.48;1.38;;;;;;;25.86;34.16;100552.38;5073340;28;20202;-72
2023/06/06 08:55:41;;;;;;;0.70;0.70;;;;;;;26.07;33.78;100555.97;5054495;28;20203;-74
2023/06/06 08:58:10;;;;;;;0.60;0.60;;;;;;;26.40;35.72;100553.69;5052126;28;20210;-74
2023/06/06 09:00:37;;;;;;;0.70;0.70;;;;;;;26.51;35.77;100546.13;5059164;28;20203;-73
2023/06/06 09:03:07;;;;;;;0.65;0.65;;;;;;;26.90;35.29;100541.75;5072411;28;20209;-72
2023/06/06 09:05:38;;;;;;;0.70;0.70;;;;;;;26.73;33.08;100551.38;5071180;28;20199;-71
2023/06/06 09:08:05;;;;;;;0.75;0.75;;;;;;;26.28;32.31;100548.91;5060871;28;20279;-71
2023/06/06 09:10:32;;;;;;;0.70;0.70;;;;;;;26.29;32.48;100518.75;5036151;28;20320;-73
2023/06/06 09:12:59;;;;;;;0.70;0.70;;;;;;;26.45;31.75;100535.75;5072285;28;20199;-73
2023/06/06 09:15:27;;;;;;;0.50;0.50;;;;;;;26.45;32.22;100535.75;5024706;28;20195;-74
2023/06/06 09:17:55;;;;;;;0.70;0.70;;;;;;;26.51;33.31;100535.50;5071315;28;20202;-75
2023/06/06 09:20:23;;;;;;;0.70;0.70;;;;;;;26.65;31.84;100540.25;5072375;28;20210;-73
2023/06/06 09:22:51;;;;;;;0.60;0.60;;;;;;;27.01;30.11;100528.84;5075062;28;20195;-73
2023/06/06 09:25:18;;;;;;;0.60;0.60;;;;;;;27.28;31.17;100528.50;5072107;28;20205;-72
2023/06/06 09:27:46;;;;;;;0.70;0.70;;;;;;;27.02;30.77;100517.25;5071832;28;20223;-74
2023/06/06 09:30:24;;;;;;;0.60;0.60;;;;;;;27.63;31.59;100533.06;5072089;28;20230;-74
2023/06/06 09:32:56;;;;;;;0.80;0.80;;;;;;;27.73;30.84;100529.00;5071729;28;20676;-73
2023/06/06 09:35:23;;;;;;;0.70;0.70;;;;;;;27.18;30.92;100497.91;5071970;28;20716;-74
2023/06/06 09:37:53;;;;;;;0.60;0.60;;;;;;;27.29;30.98;100530.25;5071564;28;20214;-73
2023/06/06 09:40:21;;;;;;;0.60;0.60;;;;;;;27.06;30.66;100529.50;5071917;28;20571;-75
2023/06/06 09:42:49;;;;;;;0.80;0.80;;;;;;;27.34;31.98;100506.91;5071970;28;20260;-73
2023/06/06 09:45:17;;;;;;;0.70;0.70;;;;;;;27.57;30.74;100536.03;5071821;28;20264;-73
2023/06/06 09:47:46;;;;;;;0.65;0.65;;;;;;;27.37;30.42;100517.41;5071448;28;20631;-73
2023/06/06 09:50:15;;;;;;;0.70;0.70;;;;;;;27.67;31.76;100526.66;5052998;28;20656;-74
2023/06/06 09:52:42;;;;;;;0.70;0.70;;;;;;;27.52;29.41;100538.03;5071439;28;20826;-73
2023/06/06 09:55:12;;;;;;;0.70;0.70;;;;;;;28.12;30.46;100525.34;5071533;28;20202;-73
2023/06/06 09:57:41;;;;;;;0.60;0.60;;;;;;;28.19;31.96;100526.75;5071581;28;20285;-70
2023/06/06 10:00:12;;;;;;;0.60;0.60;;;;;;;28.23;32.50;100533.69;5071382;28;20206;-71
2023/06/06 10:02:44;;;;;;;0.60;0.60;;;;;;;28.03;31.66;100518.66;5048038;28;20198;-71
2023/06/06 10:05:13;;;;;;;0.70;0.70;;;;;;;28.10;32.75;100516.56;5070553;28;20311;-72
2023/06/06 10:07:45;;;;;;;0.60;0.60;;;;;;;28.16;30.97;100519.78;5058498;28;20280;-72
2023/06/06 10:10:15;;;;;;;0.70;0.70;;;;;;;28.32;30.63;100525.22;5071350;28;20670;-71
2023/06/06 10:12:43;;;;;;;1.02;1.02;;;;;;;28.17;31.76;100515.31;5071301;28;20218;-72
2023/06/06 10:15:11;;;;;;;0.70;0.70;;;;;;;28.62;30.54;100512.09;5071293;28;20198;-71
2023/06/06 10:17:40;;;;;;;0.60;0.60;;;;;;;28.56;29.97;100491.94;5071325;28;20572;-71
2023/06/06 10:20:09;;;;;;;1.35;1.35;;;;;;;28.81;29.47;100496.88;5071364;28;20209;-71
2023/06/06 10:22:37;;;;;;;0.60;0.60;;;;;;;29.08;31.66;100507.84;5036177;28;20206;-72
2023/06/06 10:25:04;;;;;;;0.70;0.70;;;;;;;28.96;29.79;100498.72;5071052;28;20210;-71
2023/06/06 10:27:46;;;;;;;0.60;0.60;;;;;;;29.22;29.98;100502.59;5071151;28;20218;-71
2023/06/06 10:30:25;;;;;;;0.60;0.60;;;;;;;29.16;29.34;100501.16;5034404;28;20776;-71
2023/06/06 10:33:02;;;;;;;0.70;0.70;;;;;;;28.96;30.12;100496.03;4993212;28;20203;-72
2023/06/06 10:35:30;;;;;;;1.50;1.50;;;;;;;28.74;30.75;100488.31;5070941;28;20208;-71
2023/06/06 10:38:04;;;;;;;0.70;0.70;;;;;;;29.08;31.00;100489.16;5071046;28;20198;-71
2023/06/06 10:40:49;;;;;;;0.68;0.68;;;;;;;29.17;31.52;100473.50;5070897;28;20206;-71
2023/06/06 10:43:20;;;;;;;0.70;0.70;;;;;;;29.07;32.23;100488.31;5070898;28;20205;-71
2023/06/06 10:45:50;;;;;;;0.75;0.75;;;;;;;28.95;32.28;100467.59;5070967;28;20237;-72
2023/06/06 10:48:17;;;;;;;0.63;0.63;;;;;;;28.40;30.47;100466.97;5069321;28;20311;-72
2023/06/06 10:50:54;;;;;;;0.63;0.63;;;;;;;28.80;32.12;100479.97;5051466;28;20211;-71
2023/06/06 10:53:21;;;;;;;0.70;0.70;;;;;;;28.59;31.53;100486.44;5070805;28;20206;-71
2023/06/06 10:55:48;;;;;;;0.70;0.70;;;;;;;28.67;31.13;100486.03;5038144;28;20203;-71
2023/06/06 10:58:23;;;;;;;0.60;0.60;;;;;;;28.71;30.06;100479.63;5070926;28;20669;-71
2023/06/06 11:00:51;;;;;;;0.63;0.63;;;;;;;28.72;31.22;100467.97;5070992;28;20198;-71
2023/06/06 11:03:21;;;;;;;1.67;1.58;;;;;;;28.96;30.45;100482.69;5070560;28;20209;-71
2023/06/06 11:06:12;;;;;;;0.68;0.68;;;;;;;29.54;30.25;100480.31;5032273;28;20206;-71
2023/06/06 11:08:41;;;;;;;0.60;0.60;;;;;;;29.32;30.44;100471.81;5066027;28;20230;-72
2023/06/06 11:11:21;;;;;;;0.55;0.55;;;;;;;29.26;29.55;100466.75;5056626;28;20207;-72
2023/06/06 11:13:59;;;;;;;0.70;0.70;;;;;;;29.29;31.34;100455.94;5070559;28;20234;-72
2023/06/06 11:16:59;;;;;;;0.80;0.80;;;;;;;29.79;31.59;100461.06;5070732;28;20264;-72
2023/06/06 11:19:37;;;;;;;0.73;0.73;;;;;;;29.35;31.30;100458.28;5028569;28;20295;-71
2023/06/06 11:22:04;;;;;;;0.70;0.70;;;;;;;29.11;31.54;100462.31;5028496;28;20204;-71
2023/06/06 11:24:36;;;;;;;0.68;0.68;;;;;;;29.32;31.61;100466.47;5012131;28;20212;-71
2023/06/06 11:27:04;;;;;;;0.60;0.60;;;;;;;28.68;31.26;100431.75;5028460;28;20228;-71